createdAt,value
2023-05-09T00:00:13.779Z,101322.34
2023-05-09T00:00:37.085Z,101322.17
2023-05-09T00:01:05.213Z,101321.82
2023-05-09T00:01:30.076Z,101323.23
2023-05-09T00:01:51.805Z,101324.81
2023-05-09T00:02:13.665Z,101319.36
2023-05-09T00:02:36.487Z,101325.20
2023-05-09T00:02:58.412Z,101321.00
2023-05-09T00:03:20.251Z,101322.06
2023-05-09T00:03:43.053Z,101319.97
2023-05-09T00:04:04.928Z,101323.80
2023-05-09T00:04:26.865Z,101322.09
2023-05-09T00:04:48.721Z,101319.11
2023-05-09T00:05:11.350Z,101318.46
2023-05-09T00:05:33.221Z,101321.77
2023-05-09T00:05:55.063Z,101323.39
2023-05-09T00:06:17.668Z,101320.23
2023-05-09T00:06:39.443Z,101321.14
2023-05-09T00:07:01.299Z,101319.92
2023-05-09T00:07:23.224Z,101320.10
2023-05-09T00:07:45.024Z,101320.13
2023-05-09T00:08:06.772Z,101322.80
2023-05-09T00:08:28.573Z,101320.18
2023-05-09T00:08:50.352Z,101322.30
2023-05-09T00:09:12.966Z,101321.29
2023-05-09T00:09:34.742Z,101320.92
2023-05-09T00:09:56.526Z,101324.98
2023-05-09T00:10:18.226Z,101319.36
2023-05-09T00:10:39.948Z,101324.52
2023-05-09T00:11:02.191Z,101317.69
2023-05-09T00:11:24.011Z,101321.94
2023-05-09T00:11:46.097Z,101321.23
2023-05-09T00:12:08.259Z,101326.73
2023-05-09T00:12:30.091Z,101320.76
2023-05-09T00:12:52.273Z,101319.52
2023-05-09T00:13:14.171Z,101322.52
2023-05-09T00:13:37.564Z,101321.66
2023-05-09T00:13:59.331Z,101323.45
2023-05-09T00:14:21.111Z,101319.73
2023-05-09T00:14:45.621Z,101318.34
2023-05-09T00:15:08.454Z,101323.84
2023-05-09T00:15:30.656Z,101319.98
2023-05-09T00:15:55.213Z,101320.69
2023-05-09T00:16:17.339Z,101321.92
2023-05-09T00:16:39.726Z,101320.04
2023-05-09T00:17:01.599Z,101320.36
2023-05-09T00:17:24.000Z,101319.92
2023-05-09T00:17:46.208Z,101321.84
2023-05-09T00:18:08.363Z,101323.64
2023-05-09T00:18:31.370Z,101323.15
2023-05-09T00:18:53.310Z,101324.43
2023-05-09T00:19:15.079Z,101321.59
2023-05-09T00:19:38.159Z,101321.77
2023-05-09T00:20:01.679Z,101322.70
2023-05-09T00:20:23.469Z,101322.72
2023-05-09T00:20:45.355Z,101324.68
2023-05-09T00:21:07.158Z,101325.23
2023-05-09T00:21:29.136Z,101322.91
2023-05-09T00:21:50.862Z,101327.38
2023-05-09T00:22:13.302Z,101324.41
2023-05-09T00:22:35.202Z,101324.24
2023-05-09T00:22:56.961Z,101325.13
2023-05-09T00:23:18.664Z,101320.59
2023-05-09T00:23:40.560Z,101326.70
2023-05-09T00:24:02.365Z,101323.30
2023-05-09T00:24:24.148Z,101321.21
2023-05-09T00:24:46.015Z,101324.02
2023-05-09T00:25:08.692Z,101327.42
2023-05-09T00:25:30.506Z,101327.26
2023-05-09T00:25:52.291Z,101327.25
2023-05-09T00:26:14.191Z,101326.39
2023-05-09T00:26:38.210Z,101324.85
2023-05-09T00:27:00.384Z,101325.40
2023-05-09T00:27:22.183Z,101324.86
2023-05-09T00:27:43.964Z,101329.32
2023-05-09T00:28:05.750Z,101326.48
2023-05-09T00:28:27.749Z,101326.54
2023-05-09T00:28:49.532Z,101325.48
2023-05-09T00:29:11.260Z,101327.98
2023-05-09T00:29:33.093Z,101328.52
2023-05-09T00:29:54.976Z,101326.73
2023-05-09T00:30:16.764Z,101325.89
2023-05-09T00:30:38.596Z,101328.05
2023-05-09T00:31:00.445Z,101326.64
2023-05-09T00:31:22.333Z,101328.27
2023-05-09T00:31:44.090Z,101326.67
2023-05-09T00:32:06.430Z,101325.85
2023-05-09T00:32:29.461Z,101326.59
2023-05-09T00:32:51.374Z,101325.65
2023-05-09T00:33:13.174Z,101327.11
2023-05-09T00:33:34.972Z,101323.98
2023-05-09T00:33:56.758Z,101327.91
2023-05-09T00:34:18.745Z,101327.57
2023-05-09T00:34:40.633Z,101327.96
2023-05-09T00:35:02.428Z,101327.11
2023-05-09T00:35:24.303Z,101325.73
2023-05-09T00:35:46.299Z,101326.44
2023-05-09T00:36:08.184Z,101326.50
2023-05-09T00:36:29.965Z,101328.95
2023-05-09T00:36:51.746Z,101330.09
2023-05-09T00:37:13.533Z,101327.24
2023-05-09T00:37:35.312Z,101328.33
2023-05-09T00:37:57.099Z,101327.33
2023-05-09T00:38:19.485Z,101327.18
2023-05-09T00:38:41.489Z,101328.83
2023-05-09T00:39:03.378Z,101324.99
2023-05-09T00:39:25.261Z,101327.84
2023-05-09T00:39:49.708Z,101329.82
2023-05-09T00:40:11.694Z,101327.02
2023-05-09T00:40:33.579Z,101328.98
2023-05-09T00:40:55.473Z,101328.25
2023-05-09T00:41:17.199Z,101331.30
2023-05-09T00:41:39.042Z,101327.46
2023-05-09T00:42:01.117Z,101327.98
2023-05-09T00:42:22.916Z,101328.94
2023-05-09T00:42:44.698Z,101328.40
2023-05-09T00:43:06.995Z,101329.50
2023-05-09T00:43:28.775Z,101327.77
2023-05-09T00:43:50.542Z,101330.08
2023-05-09T00:44:12.347Z,101328.67
2023-05-09T00:44:34.238Z,101328.86
2023-05-09T00:44:55.935Z,101328.92
2023-05-09T00:45:17.801Z,101327.17
2023-05-09T00:45:39.786Z,101325.95
2023-05-09T00:46:01.639Z,101325.07
2023-05-09T00:46:23.541Z,101327.98
2023-05-09T00:46:45.563Z,101326.23
2023-05-09T00:47:07.397Z,101324.16
2023-05-09T00:47:29.497Z,101326.96
2023-05-09T00:47:51.299Z,101328.23
2023-05-09T00:48:13.061Z,101327.76
2023-05-09T00:48:34.882Z,101326.39
2023-05-09T00:48:56.588Z,101325.16
2023-05-09T00:49:18.316Z,101324.98
2023-05-09T00:49:40.137Z,101325.71
2023-05-09T00:50:02.247Z,101326.80
2023-05-09T00:50:24.316Z,101323.33
2023-05-09T00:50:47.332Z,101324.92
2023-05-09T00:51:09.077Z,101322.27
2023-05-09T00:51:30.851Z,101323.67
2023-05-09T00:51:52.583Z,101321.77
2023-05-09T00:52:14.568Z,101323.55
2023-05-09T00:52:36.458Z,101324.26
2023-05-09T00:52:58.545Z,101325.42
2023-05-09T00:53:20.854Z,101324.36
2023-05-09T00:53:42.873Z,101323.99
2023-05-09T00:54:06.457Z,101322.27
2023-05-09T00:54:29.546Z,101324.05
2023-05-09T00:54:51.658Z,101322.86
2023-05-09T00:55:13.673Z,101321.98
2023-05-09T00:55:36.157Z,101324.48
2023-05-09T00:55:58.053Z,101323.09
2023-05-09T00:56:20.040Z,101324.20
2023-05-09T00:56:41.920Z,101322.48
2023-05-09T00:57:03.638Z,101324.75
2023-05-09T00:57:25.690Z,101322.83
2023-05-09T00:57:47.473Z,101322.86
2023-05-09T00:58:09.259Z,101324.66
2023-05-09T00:58:31.063Z,101326.27
2023-05-09T00:58:53.133Z,101321.39
2023-05-09T00:59:16.324Z,101324.73
2023-05-09T00:59:39.360Z,101324.60
2023-05-09T01:00:01.246Z,101325.32
2023-05-09T01:00:23.034Z,101326.05
2023-05-09T01:00:44.814Z,101323.42
2023-05-09T01:01:06.825Z,101322.71
2023-05-09T01:01:28.640Z,101325.03
2023-05-09T01:01:50.804Z,101323.45
2023-05-09T01:02:12.892Z,101324.89
2023-05-09T01:02:34.831Z,101325.09
2023-05-09T01:02:57.126Z,101324.42
2023-05-09T01:03:19.153Z,101321.98
2023-05-09T01:03:41.690Z,101325.70
2023-05-09T01:04:04.357Z,101323.06
2023-05-09T01:04:26.138Z,101324.48
2023-05-09T01:04:47.926Z,101322.42
2023-05-09T01:05:10.989Z,101325.40
2023-05-09T01:05:36.296Z,101324.93
2023-05-09T01:05:57.983Z,101325.14
2023-05-09T01:06:41.346Z,101327.59
2023-05-09T01:07:22.053Z,101329.94
2023-05-09T01:07:46.391Z,101325.88
2023-05-09T01:08:10.840Z,101327.47
2023-05-09T01:08:35.384Z,101327.67
2023-05-09T01:09:04.059Z,101327.20
2023-05-09T01:09:28.531Z,101328.23
2023-05-09T01:09:55.936Z,101328.62
2023-05-09T01:10:40.374Z,101327.17
2023-05-09T01:11:04.328Z,101328.42
2023-05-09T01:11:28.750Z,101326.88
2023-05-09T01:11:53.082Z,101326.71
2023-05-09T01:12:33.516Z,101324.23
2023-05-09T01:12:58.439Z,101324.78
2023-05-09T01:13:35.871Z,101323.90
2023-05-09T01:13:59.896Z,101324.14
2023-05-09T01:14:21.688Z,101325.04
2023-05-09T01:15:02.492Z,101326.12
2023-05-09T01:15:25.403Z,101325.08
2023-05-09T01:15:50.285Z,101325.11
2023-05-09T01:16:31.416Z,101323.90
2023-05-09T01:16:54.281Z,101322.15
2023-05-09T01:17:34.571Z,101322.02
2023-05-09T01:18:14.921Z,101325.38
2023-05-09T01:18:36.697Z,101325.43
2023-05-09T01:18:58.440Z,101324.90
2023-05-09T01:19:38.636Z,101325.80
2023-05-09T01:20:05.611Z,101324.30
2023-05-09T01:20:33.574Z,101325.34
2023-05-09T01:21:01.909Z,101323.61
2023-05-09T01:21:28.191Z,101324.02
2023-05-09T01:21:50.097Z,101326.26
2023-05-09T01:22:12.259Z,101328.24
2023-05-09T01:22:36.029Z,101327.37
2023-05-09T01:23:17.096Z,101325.10
2023-05-09T01:23:44.812Z,101324.77
2023-05-09T01:24:33.082Z,101327.35
2023-05-09T01:24:54.867Z,101324.45
2023-05-09T01:25:29.028Z,101326.77
2023-05-09T01:25:54.604Z,101325.05
2023-05-09T01:26:35.134Z,101324.52
2023-05-09T01:27:03.019Z,101322.83
2023-05-09T01:27:45.461Z,101324.22
2023-05-09T01:28:08.369Z,101326.14
2023-05-09T01:28:30.169Z,101326.54
2023-05-09T01:28:54.656Z,101327.28
2023-05-09T01:29:35.653Z,101325.15
2023-05-09T01:29:57.705Z,101325.73
2023-05-09T01:30:19.622Z,101326.77
2023-05-09T01:30:42.448Z,101327.33
2023-05-09T01:31:04.537Z,101327.86
2023-05-09T01:31:26.495Z,101325.93
2023-05-09T01:31:49.239Z,101325.08
2023-05-09T01:32:15.613Z,101327.55
2023-05-09T01:32:37.475Z,101326.34
2023-05-09T01:32:59.895Z,101328.64
2023-05-09T01:33:22.129Z,101327.21
2023-05-09T01:33:43.931Z,101328.11
2023-05-09T01:34:07.252Z,101325.29
2023-05-09T01:34:29.038Z,101324.98
2023-05-09T01:34:52.255Z,101327.24
2023-05-09T01:35:14.896Z,101330.09
2023-05-09T01:35:37.588Z,101328.18
2023-05-09T01:36:00.364Z,101324.48
2023-05-09T01:36:22.032Z,101327.15
2023-05-09T01:36:43.841Z,101326.11
2023-05-09T01:37:05.681Z,101325.41
2023-05-09T01:37:30.785Z,101325.73
2023-05-09T01:37:52.560Z,101324.73
2023-05-09T01:38:15.067Z,101323.83
2023-05-09T01:38:37.617Z,101327.02
2023-05-09T01:38:59.450Z,101325.08
2023-05-09T01:39:21.167Z,101329.67
2023-05-09T01:39:45.208Z,101326.66
2023-05-09T01:40:07.678Z,101327.75
2023-05-09T01:40:30.589Z,101326.88
2023-05-09T01:40:53.209Z,101325.10
2023-05-09T01:41:16.194Z,101326.41
2023-05-09T01:41:38.083Z,101328.89
2023-05-09T01:42:01.620Z,101327.66
2023-05-09T01:42:23.360Z,101327.81
2023-05-09T01:42:50.031Z,101329.09
2023-05-09T01:43:12.067Z,101329.63
2023-05-09T01:43:33.899Z,101329.49
2023-05-09T01:43:55.915Z,101328.85
2023-05-09T01:44:18.020Z,101328.29
2023-05-09T01:44:40.241Z,101330.43
2023-05-09T01:45:02.015Z,101330.79
2023-05-09T01:45:23.957Z,101329.76
2023-05-09T01:45:45.686Z,101333.14
2023-05-09T01:46:07.542Z,101330.48
2023-05-09T01:46:29.377Z,101332.82
2023-05-09T01:46:52.623Z,101333.85
2023-05-09T01:47:16.690Z,101332.65
2023-05-09T01:47:38.525Z,101335.33
2023-05-09T01:48:00.290Z,101334.29
2023-05-09T01:48:22.393Z,101333.25
2023-05-09T01:48:44.666Z,101331.84
2023-05-09T01:49:07.731Z,101333.70
2023-05-09T01:49:30.991Z,101331.21
2023-05-09T01:49:52.777Z,101335.92
2023-05-09T01:50:14.586Z,101339.02
2023-05-09T01:50:36.350Z,101337.09
2023-05-09T01:50:58.038Z,101336.04
2023-05-09T01:51:19.744Z,101336.77
2023-05-09T01:51:43.710Z,101335.73
2023-05-09T01:52:07.788Z,101337.86
2023-05-09T01:52:29.568Z,101336.97
2023-05-09T01:52:52.485Z,101337.71
2023-05-09T01:53:14.272Z,101339.14
2023-05-09T01:53:36.066Z,101339.48
2023-05-09T01:53:57.754Z,101335.95
2023-05-09T01:54:20.943Z,101338.48
2023-05-09T01:54:42.731Z,101333.38
2023-05-09T01:55:06.353Z,101334.80
2023-05-09T01:55:29.157Z,101334.46
2023-05-09T01:55:51.151Z,101334.33
2023-05-09T01:56:12.961Z,101336.09
2023-05-09T01:56:36.401Z,101335.58
2023-05-09T01:56:58.116Z,101334.71
2023-05-09T01:57:20.118Z,101333.13
2023-05-09T01:57:42.329Z,101336.84
2023-05-09T01:58:05.054Z,101333.70
2023-05-09T01:58:27.217Z,101329.63
2023-05-09T01:58:50.337Z,101334.61
2023-05-09T01:59:16.359Z,101329.12
2023-05-09T01:59:42.389Z,101329.17
2023-05-09T02:00:04.398Z,101331.66
2023-05-09T02:00:35.231Z,101332.39
2023-05-09T02:00:56.993Z,101334.33
2023-05-09T02:01:19.294Z,101334.86
2023-05-09T02:01:40.984Z,101332.64
2023-05-09T02:02:05.524Z,101333.68
2023-05-09T02:02:27.784Z,101333.55
2023-05-09T02:02:49.677Z,101335.65
2023-05-09T02:03:11.614Z,101334.29
2023-05-09T02:03:34.349Z,101335.60
2023-05-09T02:03:56.044Z,101336.44
2023-05-09T02:04:17.833Z,101336.49
2023-05-09T02:04:40.216Z,101336.99
2023-05-09T02:05:02.007Z,101338.96
2023-05-09T02:05:25.121Z,101337.92
2023-05-09T02:05:46.900Z,101337.74
2023-05-09T02:06:09.296Z,101339.17
2023-05-09T02:06:31.399Z,101338.17
2023-05-09T02:06:53.180Z,101341.16
2023-05-09T02:07:14.957Z,101340.95
2023-05-09T02:07:36.644Z,101341.16
2023-05-09T02:08:01.311Z,101339.23
2023-05-09T02:08:23.171Z,101341.58
2023-05-09T02:08:44.986Z,101339.64
2023-05-09T02:09:06.742Z,101339.29
2023-05-09T02:09:28.440Z,101341.08
2023-05-09T02:09:50.516Z,101339.46
2023-05-09T02:10:12.303Z,101342.50
2023-05-09T02:10:34.093Z,101340.79
2023-05-09T02:10:55.974Z,101338.83
2023-05-09T02:11:17.755Z,101342.36
2023-05-09T02:11:39.465Z,101340.09
2023-05-09T02:12:01.330Z,101337.83
2023-05-09T02:12:23.937Z,101339.79
2023-05-09T02:12:45.734Z,101337.53
2023-05-09T02:13:07.723Z,101340.33
2023-05-09T02:13:29.555Z,101337.58
2023-05-09T02:13:51.479Z,101337.22
2023-05-09T02:14:13.776Z,101337.41
2023-05-09T02:14:35.962Z,101334.09
2023-05-09T02:14:57.750Z,101334.99
2023-05-09T02:15:21.177Z,101334.14
2023-05-09T02:15:43.575Z,101332.23
2023-05-09T02:16:06.112Z,101332.97
2023-05-09T02:16:28.162Z,101333.36
2023-05-09T02:16:50.600Z,101334.02
2023-05-09T02:17:17.094Z,101332.84
2023-05-09T02:17:39.284Z,101337.09
2023-05-09T02:18:01.706Z,101338.02
2023-05-09T02:18:23.514Z,101335.53
2023-05-09T02:18:45.459Z,101335.21
2023-05-09T02:19:07.164Z,101336.51
2023-05-09T02:19:28.884Z,101336.86
2023-05-09T02:19:50.659Z,101337.55
2023-05-09T02:20:12.449Z,101338.31
2023-05-09T02:20:36.179Z,101339.39
2023-05-09T02:20:57.979Z,101339.76
2023-05-09T02:21:19.743Z,101336.48
2023-05-09T02:21:41.466Z,101340.37
2023-05-09T02:22:05.048Z,101338.96
2023-05-09T02:22:27.044Z,101339.17
2023-05-09T02:22:48.812Z,101341.29
2023-05-09T02:23:10.608Z,101337.48
2023-05-09T02:23:32.392Z,101341.71
2023-05-09T02:23:54.186Z,101343.36
2023-05-09T02:24:15.976Z,101341.59
2023-05-09T02:24:37.708Z,101344.05
2023-05-09T02:25:00.692Z,101342.16
2023-05-09T02:25:22.559Z,101342.85
2023-05-09T02:25:44.324Z,101342.54
2023-05-09T02:26:06.040Z,101340.78
2023-05-09T02:26:28.012Z,101343.25
2023-05-09T02:26:49.782Z,101341.67
2023-05-09T02:27:11.569Z,101344.48
2023-05-09T02:27:33.775Z,101342.05
2023-05-09T02:27:55.851Z,101341.69
2023-05-09T02:28:17.638Z,101339.48
2023-05-09T02:28:39.455Z,101343.86
2023-05-09T02:29:01.399Z,101338.96
2023-05-09T02:29:23.394Z,101340.16
2023-05-09T02:29:48.356Z,101343.21
2023-05-09T02:30:12.214Z,101340.92
2023-05-09T02:30:35.711Z,101343.64
2023-05-09T02:30:58.839Z,101341.45
2023-05-09T02:31:20.932Z,101343.20
2023-05-09T02:31:42.864Z,101342.66
2023-05-09T02:32:05.038Z,101343.02
2023-05-09T02:32:27.720Z,101340.95
2023-05-09T02:32:49.551Z,101338.11
2023-05-09T02:33:12.016Z,101341.31
2023-05-09T02:33:34.490Z,101340.11
2023-05-09T02:33:57.192Z,101343.29
2023-05-09T02:34:19.100Z,101340.48
2023-05-09T02:34:41.270Z,101340.30
2023-05-09T02:35:04.107Z,101339.58
2023-05-09T02:35:26.372Z,101339.81
2023-05-09T02:35:48.261Z,101338.60
2023-05-09T02:36:10.153Z,101336.86
2023-05-09T02:36:32.760Z,101339.01
2023-05-09T02:36:55.248Z,101341.85
2023-05-09T02:37:16.947Z,101339.73
2023-05-09T02:37:38.713Z,101340.29
2023-05-09T02:38:01.028Z,101340.13
2023-05-09T02:38:23.334Z,101342.54
2023-05-09T02:38:45.089Z,101338.34
2023-05-09T02:39:07.487Z,101340.31
2023-05-09T02:39:29.281Z,101337.34
2023-05-09T02:39:51.058Z,101339.63
2023-05-09T02:40:13.927Z,101339.44
2023-05-09T02:40:35.750Z,101338.44
2023-05-09T02:40:57.558Z,101338.80
2023-05-09T02:41:22.086Z,101339.02
2023-05-09T02:41:48.162Z,101339.55
2023-05-09T02:42:10.804Z,101342.39
2023-05-09T02:42:32.555Z,101341.86
2023-05-09T02:42:55.257Z,101339.77
2023-05-09T02:43:16.995Z,101339.09
2023-05-09T02:43:38.685Z,101336.63
2023-05-09T02:44:01.034Z,101337.52
2023-05-09T02:44:22.798Z,101336.47
2023-05-09T02:44:44.694Z,101338.28
2023-05-09T02:45:07.918Z,101336.71
2023-05-09T02:45:31.052Z,101339.02
2023-05-09T02:45:52.863Z,101337.95
2023-05-09T02:46:14.801Z,101338.83
2023-05-09T02:46:36.595Z,101335.04
2023-05-09T02:46:58.358Z,101340.31
2023-05-09T02:47:20.371Z,101339.62
2023-05-09T02:47:42.365Z,101339.98
2023-05-09T02:48:06.304Z,101340.88
2023-05-09T02:48:30.201Z,101340.59
2023-05-09T02:48:52.805Z,101340.95
2023-05-09T02:49:26.734Z,101339.73
2023-05-09T02:49:53.151Z,101341.48
2023-05-09T02:50:15.977Z,101339.55
2023-05-09T02:50:39.715Z,101344.15
2023-05-09T02:51:01.674Z,101344.33
2023-05-09T02:51:23.412Z,101343.95
2023-05-09T02:51:45.093Z,101345.52
2023-05-09T02:52:06.818Z,101343.77
2023-05-09T02:52:28.540Z,101342.88
2023-05-09T02:52:50.627Z,101343.78
2023-05-09T02:53:12.321Z,101344.98
2023-05-09T02:53:34.951Z,101343.88
2023-05-09T02:53:56.972Z,101344.61
2023-05-09T02:54:18.757Z,101343.21
2023-05-09T02:54:40.748Z,101347.20
2023-05-09T02:55:03.246Z,101346.00
2023-05-09T02:55:25.743Z,101347.02
2023-05-09T02:55:47.540Z,101344.38
2023-05-09T02:56:10.975Z,101346.64
2023-05-09T02:56:32.733Z,101345.97
2023-05-09T02:56:54.540Z,101349.66
2023-05-09T02:57:16.520Z,101348.77
2023-05-09T02:57:38.280Z,101346.48
2023-05-09T02:58:12.856Z,101351.23
2023-05-09T02:58:36.183Z,101346.28
2023-05-09T02:58:57.968Z,101348.06
2023-05-09T02:59:20.462Z,101351.20
2023-05-09T02:59:42.454Z,101350.48
2023-05-09T03:00:09.015Z,101355.04
2023-05-09T03:00:30.837Z,101352.09
2023-05-09T03:00:53.231Z,101350.83
2023-05-09T03:01:15.094Z,101351.58
2023-05-09T03:01:36.811Z,101352.24
2023-05-09T03:01:58.690Z,101351.50
2023-05-09T03:02:20.700Z,101352.42
2023-05-09T03:02:42.734Z,101352.73
2023-05-09T03:03:09.798Z,101352.36
2023-05-09T03:03:34.257Z,101350.61
2023-05-09T03:03:57.192Z,101351.83
2023-05-09T03:04:19.928Z,101350.75
2023-05-09T03:04:42.424Z,101351.05
2023-05-09T03:05:05.043Z,101351.21
2023-05-09T03:05:28.036Z,101352.22
2023-05-09T03:05:49.828Z,101353.99
2023-05-09T03:06:11.568Z,101349.60
2023-05-09T03:06:33.393Z,101350.63
2023-05-09T03:06:55.379Z,101353.27
2023-05-09T03:07:17.421Z,101350.94
2023-05-09T03:07:39.154Z,101349.69
2023-05-09T03:08:00.940Z,101351.27
2023-05-09T03:08:22.722Z,101350.02
2023-05-09T03:08:44.508Z,101352.84
2023-05-09T03:09:08.332Z,101353.17
2023-05-09T03:09:30.124Z,101351.25
2023-05-09T03:09:52.006Z,101353.89
2023-05-09T03:10:13.896Z,101350.54
2023-05-09T03:10:36.193Z,101352.10
2023-05-09T03:10:58.284Z,101353.00
2023-05-09T03:11:20.394Z,101354.19
2023-05-09T03:11:42.774Z,101352.79
2023-05-09T03:12:04.863Z,101351.70
2023-05-09T03:12:26.652Z,101353.46
2023-05-09T03:12:49.544Z,101353.27
2023-05-09T03:13:11.329Z,101351.70
2023-05-09T03:13:33.226Z,101355.91
2023-05-09T03:13:54.973Z,101356.60
2023-05-09T03:14:16.798Z,101353.08
2023-05-09T03:14:38.515Z,101356.24
2023-05-09T03:15:01.413Z,101356.05
2023-05-09T03:15:23.808Z,101357.10
2023-05-09T03:15:45.702Z,101358.15
2023-05-09T03:16:07.817Z,101361.85
2023-05-09T03:16:29.791Z,101360.24
2023-05-09T03:16:51.997Z,101361.49
2023-05-09T03:17:21.413Z,101359.03
2023-05-09T03:17:43.343Z,101358.87
2023-05-09T03:18:06.391Z,101358.49
2023-05-09T03:18:28.138Z,101359.91
2023-05-09T03:18:50.381Z,101359.40
2023-05-09T03:19:12.132Z,101363.42
2023-05-09T03:19:34.153Z,101362.37
2023-05-09T03:19:55.942Z,101364.45
2023-05-09T03:20:18.035Z,101364.79
2023-05-09T03:20:39.833Z,101364.09
2023-05-09T03:21:02.621Z,101365.67
2023-05-09T03:21:25.019Z,101366.88
2023-05-09T03:21:46.806Z,101366.52
2023-05-09T03:22:08.589Z,101367.05
2023-05-09T03:22:32.318Z,101368.95
2023-05-09T03:22:56.631Z,101369.52
2023-05-09T03:23:18.339Z,101371.62
2023-05-09T03:23:40.164Z,101371.58
2023-05-09T03:24:02.146Z,101367.05
2023-05-09T03:24:26.761Z,101369.31
2023-05-09T03:24:48.852Z,101370.89
2023-05-09T03:25:10.860Z,101369.45
2023-05-09T03:25:33.854Z,101368.73
2023-05-09T03:25:55.844Z,101370.27
2023-05-09T03:26:17.656Z,101367.79
2023-05-09T03:26:40.230Z,101367.55
2023-05-09T03:27:02.019Z,101370.88
2023-05-09T03:27:23.904Z,101368.22
2023-05-09T03:27:46.301Z,101369.61
2023-05-09T03:28:09.620Z,101368.30
2023-05-09T03:28:31.524Z,101368.98
2023-05-09T03:28:55.751Z,101369.46
2023-05-09T03:29:17.456Z,101368.38
2023-05-09T03:29:39.220Z,101368.02
2023-05-09T03:30:01.000Z,101370.59
2023-05-09T03:30:22.729Z,101368.67
2023-05-09T03:30:44.528Z,101373.58
2023-05-09T03:31:07.250Z,101372.30
2023-05-09T03:31:29.074Z,101370.91
2023-05-09T03:31:51.072Z,101369.30
2023-05-09T03:32:14.658Z,101371.42
2023-05-09T03:32:37.340Z,101371.36
2023-05-09T03:32:59.301Z,101374.68
2023-05-09T03:33:21.205Z,101375.86
2023-05-09T03:33:43.347Z,101374.45
2023-05-09T03:34:05.152Z,101373.36
2023-05-09T03:34:26.910Z,101371.91
2023-05-09T03:34:48.871Z,101376.08
2023-05-09T03:35:11.428Z,101372.98
2023-05-09T03:35:33.288Z,101374.20
2023-05-09T03:35:55.278Z,101375.70
2023-05-09T03:36:17.573Z,101376.56
2023-05-09T03:36:39.458Z,101376.19
2023-05-09T03:37:01.240Z,101375.08
2023-05-09T03:37:25.483Z,101374.50
2023-05-09T03:37:48.702Z,101379.73
2023-05-09T03:38:10.671Z,101379.50
2023-05-09T03:38:32.680Z,101377.49
2023-05-09T03:38:54.773Z,101378.68
2023-05-09T03:39:16.693Z,101380.55
2023-05-09T03:39:40.403Z,101379.83
2023-05-09T03:40:02.484Z,101378.58
2023-05-09T03:40:24.843Z,101377.95
2023-05-09T03:40:55.863Z,101377.05
2023-05-09T03:41:18.710Z,101379.63
2023-05-09T03:41:41.899Z,101381.50
2023-05-09T03:42:03.722Z,101380.90
2023-05-09T03:42:25.556Z,101381.41
2023-05-09T03:42:49.593Z,101379.44
2023-05-09T03:43:11.351Z,101380.08
2023-05-09T03:43:33.057Z,101381.26
2023-05-09T03:43:54.841Z,101379.10
2023-05-09T03:44:16.558Z,101380.98
2023-05-09T03:44:38.310Z,101378.81
2023-05-09T03:45:00.128Z,101379.64
2023-05-09T03:45:21.927Z,101378.55
2023-05-09T03:45:43.755Z,101382.19
2023-05-09T03:46:06.385Z,101381.58
2023-05-09T03:46:28.109Z,101377.86
2023-05-09T03:46:50.604Z,101383.58
2023-05-09T03:47:12.539Z,101381.99
2023-05-09T03:47:34.855Z,101381.88
2023-05-09T03:47:57.071Z,101380.42
2023-05-09T03:48:18.831Z,101384.08
2023-05-09T03:48:44.060Z,101382.38
2023-05-09T03:49:06.333Z,101383.91
2023-05-09T03:49:28.884Z,101379.83
2023-05-09T03:49:50.773Z,101384.52
2023-05-09T03:50:14.062Z,101384.30
2023-05-09T03:50:36.193Z,101381.23
2023-05-09T03:50:58.053Z,101384.95
2023-05-09T03:51:21.167Z,101383.67
2023-05-09T03:51:43.326Z,101383.98
2023-05-09T03:52:08.329Z,101384.85
2023-05-09T03:52:30.404Z,101383.95
2023-05-09T03:52:52.396Z,101385.33
2023-05-09T03:53:14.185Z,101386.73
2023-05-09T03:53:36.786Z,101386.53
2023-05-09T03:53:58.927Z,101385.64
2023-05-09T03:54:20.716Z,101387.55
2023-05-09T03:54:42.647Z,101390.36
2023-05-09T03:55:04.850Z,101388.54
2023-05-09T03:55:28.573Z,101391.17
2023-05-09T03:55:50.463Z,101390.57
2023-05-09T03:56:13.060Z,101393.35
2023-05-09T03:56:39.856Z,101390.10
2023-05-09T03:57:01.664Z,101390.60
2023-05-09T03:57:23.384Z,101392.30
2023-05-09T03:57:46.278Z,101392.40
2023-05-09T03:58:08.234Z,101388.98
2023-05-09T03:58:33.079Z,101392.83
2023-05-09T03:58:55.474Z,101395.22
2023-05-09T03:59:17.479Z,101396.78
2023-05-09T03:59:39.363Z,101396.36
2023-05-09T04:00:01.222Z,101396.16
2023-05-09T04:00:23.328Z,101394.36
2023-05-09T04:00:49.311Z,101394.29
2023-05-09T04:01:14.667Z,101396.03
2023-05-09T04:01:38.855Z,101394.59
2023-05-09T04:02:01.802Z,101396.63
2023-05-09T04:02:24.647Z,101396.23
2023-05-09T04:02:46.713Z,101395.27
2023-05-09T04:03:15.264Z,101395.02
2023-05-09T04:03:40.204Z,101394.09
2023-05-09T04:04:02.221Z,101391.20
2023-05-09T04:04:25.753Z,101395.55
2023-05-09T04:04:48.527Z,101394.14
2023-05-09T04:05:11.904Z,101396.19
2023-05-09T04:05:33.830Z,101391.94
2023-05-09T04:05:56.332Z,101393.64
2023-05-09T04:06:25.587Z,101395.27
2023-05-09T04:06:47.414Z,101392.28
2023-05-09T04:07:09.723Z,101394.55
2023-05-09T04:07:31.765Z,101394.00
2023-05-09T04:07:53.807Z,101391.50
2023-05-09T04:08:15.614Z,101395.34
2023-05-09T04:08:37.419Z,101395.96
2023-05-09T04:08:59.815Z,101398.78
2023-05-09T04:09:21.879Z,101396.75
2023-05-09T04:09:44.094Z,101400.52
2023-05-09T04:10:06.498Z,101398.17
2023-05-09T04:10:28.587Z,101397.44
2023-05-09T04:10:50.780Z,101396.50
2023-05-09T04:11:12.671Z,101396.28
2023-05-09T04:11:36.300Z,101396.92
2023-05-09T04:11:58.836Z,101396.70
2023-05-09T04:12:20.540Z,101397.52
2023-05-09T04:12:42.454Z,101399.05
2023-05-09T04:13:05.169Z,101398.95
2023-05-09T04:13:28.391Z,101397.36
2023-05-09T04:13:50.422Z,101399.58
2023-05-09T04:14:23.888Z,101399.86
2023-05-09T04:14:48.788Z,101399.25
2023-05-09T04:15:11.570Z,101400.21
2023-05-09T04:15:33.472Z,101403.52
2023-05-09T04:15:55.255Z,101402.74
2023-05-09T04:16:17.301Z,101403.19
2023-05-09T04:16:39.170Z,101400.97
2023-05-09T04:17:01.211Z,101404.07
2023-05-09T04:17:23.220Z,101404.52
2023-05-09T04:17:45.016Z,101403.41
2023-05-09T04:18:07.001Z,101405.62
2023-05-09T04:18:28.762Z,101402.42
2023-05-09T04:18:50.553Z,101402.02
2023-05-09T04:19:12.336Z,101406.14
2023-05-09T04:19:34.119Z,101404.52
2023-05-09T04:19:56.443Z,101403.95
2023-05-09T04:20:18.313Z,101407.67
2023-05-09T04:20:40.085Z,101406.16
2023-05-09T04:21:01.979Z,101408.23
2023-05-09T04:21:23.963Z,101408.87
2023-05-09T04:21:47.588Z,101408.32
2023-05-09T04:22:09.332Z,101407.14